createdAt,value
2017-05-25T00:00:44.810Z,0
2017-05-25T00:01:44.532Z,0
2017-05-25T00:03:13.789Z,0
2017-05-25T00:03:58.893Z,0
2017-05-25T00:04:44.599Z,0
2017-05-25T00:05:44.999Z,0
2017-05-25T00:07:14.179Z,0
2017-05-25T00:07:44.971Z,0
2017-05-25T00:08:44.701Z,0
2017-05-25T00:09:59.022Z,0
2017-05-25T00:10:45.037Z,0
2017-05-25T00:11:45.067Z,0
2017-05-25T00:12:45.090Z,0
2017-05-25T00:13:44.801Z,0
2017-05-25T00:14:44.829Z,0
2017-05-25T00:15:59.772Z,0
2017-05-25T00:16:44.869Z,0
2017-05-25T00:17:59.822Z,0
2017-05-25T00:18:45.225Z,0
2017-05-25T00:19:45.247Z,0
2017-05-25T00:20:44.963Z,0
2017-05-25T00:21:59.605Z,0
2017-05-25T00:22:45.311Z,0
2017-05-25T00:23:45.343Z,0
2017-05-25T00:24:45.355Z,0
2017-05-25T00:25:59.995Z,0
2017-05-25T00:26:45.405Z,0
2017-05-25T00:27:45.432Z,0
2017-05-25T00:28:44.845Z,0
2017-05-25T00:29:45.479Z,0
2017-05-25T00:30:45.494Z,0
2017-05-25T00:31:45.519Z,0
2017-05-25T00:33:00.228Z,0
2017-05-25T00:33:45.564Z,0
2017-05-25T00:34:45.286Z,0
2017-05-25T00:35:45.302Z,0
2017-05-25T00:36:45.091Z,0
2017-05-25T00:37:45.660Z,0
2017-05-25T00:38:59.995Z,0
2017-05-25T00:39:45.704Z,0
2017-05-25T00:41:00.342Z,0
2017-05-25T00:41:45.747Z,0
2017-05-25T00:42:45.773Z,0
2017-05-25T00:43:45.794Z,0
2017-05-25T00:44:45.817Z,0
2017-05-25T00:45:45.839Z,0
2017-05-25T00:46:45.854Z,0
2017-05-25T00:47:45.885Z,0
2017-05-25T00:49:00.521Z,0
2017-05-25T00:49:45.629Z,0
2017-05-25T00:51:00.569Z,0
2017-05-25T00:51:45.669Z,0
2017-05-25T00:52:46.004Z,0
2017-05-25T00:53:46.025Z,0
2017-05-25T00:55:00.353Z,0
2017-05-25T00:55:46.063Z,0
2017-05-25T00:56:46.089Z,0
2017-05-25T00:58:46.133Z,0
2017-05-25T01:00:46.175Z,0
2017-05-25T01:01:46.199Z,0
2017-05-25T01:02:46.227Z,0
2017-05-25T01:04:00.557Z,0
2017-05-25T01:04:46.282Z,0
2017-05-25T01:06:00.604Z,0
2017-05-25T01:06:46.311Z,0
2017-05-25T01:07:46.337Z,0
2017-05-25T01:08:46.356Z,0
2017-05-25T01:10:00.693Z,0
2017-05-25T01:10:46.405Z,0
2017-05-25T01:11:46.424Z,0
2017-05-25T01:13:01.066Z,0
2017-05-25T01:13:46.167Z,0
2017-05-25T01:14:46.496Z,0
2017-05-25T01:15:46.520Z,0
2017-05-25T01:16:46.543Z,0
2017-05-25T01:17:46.262Z,0
2017-05-25T01:18:46.286Z,0
2017-05-25T01:19:46.605Z,0
2017-05-25T01:20:46.628Z,0
2017-05-25T01:22:00.658Z,0
2017-05-25T01:22:46.368Z,0
2017-05-25T01:23:46.698Z,0
2017-05-25T01:24:46.720Z,0
2017-05-25T01:26:46.454Z,0
2017-05-25T01:27:46.481Z,0
2017-05-25T01:29:01.420Z,0
2017-05-25T01:29:46.829Z,0
2017-05-25T01:30:46.553Z,0
2017-05-25T01:33:01.212Z,0
2017-05-25T01:33:46.921Z,0
2017-05-25T01:34:46.638Z,0
2017-05-25T01:35:46.359Z,0
2017-05-25T01:36:46.680Z,0
2017-05-25T01:37:47.014Z,0
2017-05-25T01:38:47.034Z,0
2017-05-25T01:39:47.054Z,0
2017-05-25T01:40:46.166Z,0
2017-05-25T01:41:46.791Z,0
2017-05-25T01:43:46.847Z,0
2017-05-25T01:45:01.488Z,0
2017-05-25T01:45:47.191Z,0
2017-05-25T01:46:46.605Z,0
2017-05-25T01:47:46.931Z,0
2017-05-25T01:48:47.255Z,0
2017-05-25T01:49:47.279Z,0
2017-05-25T01:50:47.297Z,0
2017-05-25T01:52:01.640Z,0
2017-05-25T01:53:01.662Z,0
2017-05-25T01:53:47.065Z,0
2017-05-25T01:54:47.460Z,0
2017-05-25T01:55:47.177Z,0
2017-05-25T01:56:47.433Z,0
2017-05-25T01:57:47.464Z,0
2017-05-25T01:58:47.181Z,0
2017-05-25T01:59:47.202Z,0
2017-05-25T02:01:02.137Z,0
2017-05-25T02:01:47.237Z,0
2017-05-25T02:02:47.566Z,0
2017-05-25T02:03:47.286Z,0
2017-05-25T02:04:47.614Z,0
2017-05-25T02:05:47.638Z,0
2017-05-25T02:06:47.659Z,0
2017-05-25T02:07:47.683Z,0
2017-05-25T02:08:47.703Z,0
2017-05-25T02:10:02.344Z,0
2017-05-25T02:10:47.746Z,0
2017-05-25T02:11:47.461Z,0
2017-05-25T02:12:47.487Z,0
2017-05-25T02:13:47.819Z,0
2017-05-25T02:14:47.852Z,0
2017-05-25T02:16:47.578Z,0
2017-05-25T02:17:47.905Z,0
2017-05-25T02:18:47.926Z,0
2017-05-25T02:19:47.643Z,0
2017-05-25T02:20:47.361Z,0
2017-05-25T02:21:47.995Z,0
2017-05-25T02:22:47.710Z,0
2017-05-25T02:24:02.665Z,0
2017-05-25T02:24:48.115Z,0
2017-05-25T02:25:48.087Z,0
2017-05-25T02:26:48.101Z,0
2017-05-25T02:28:02.743Z,0
2017-05-25T02:29:02.763Z,0
2017-05-25T02:29:48.174Z,0
2017-05-25T02:31:02.806Z,0
2017-05-25T02:32:47.933Z,0
2017-05-25T02:33:48.254Z,0
2017-05-25T02:35:48.302Z,0
2017-05-25T02:36:48.324Z,0
2017-05-25T02:37:48.349Z,0
2017-05-25T02:39:02.378Z,0
2017-05-25T02:39:48.085Z,0
2017-05-25T02:40:48.412Z,0
2017-05-25T02:41:48.129Z,0
2017-05-25T02:43:03.072Z,0
2017-05-25T02:44:03.097Z,0
2017-05-25T02:44:48.198Z,0
2017-05-25T02:45:48.220Z,0
2017-05-25T02:46:48.544Z,0
2017-05-25T02:48:02.888Z,5
2017-05-25T02:48:48.598Z,5
2017-05-25T02:49:48.315Z,5
2017-05-25T02:50:48.634Z,5
2017-05-25T02:51:48.654Z,5
2017-05-25T02:52:48.684Z,5
2017-05-25T02:53:48.400Z,5
2017-05-25T02:54:48.417Z,5
2017-05-25T02:55:48.138Z,5
2017-05-25T02:56:48.767Z,5
2017-05-25T02:58:03.103Z,5
2017-05-25T02:59:48.831Z,10
2017-05-25T03:00:48.551Z,10
2017-05-25T03:01:48.583Z,10
2017-05-25T03:02:48.602Z,10
2017-05-25T03:04:03.236Z,10
2017-05-25T03:04:48.648Z,10
2017-05-25T03:05:48.969Z,15
2017-05-25T03:06:48.990Z,15
2017-05-25T03:07:49.337Z,15
2017-05-25T03:08:48.731Z,15
2017-05-25T03:09:48.752Z,15
2017-05-25T03:11:03.692Z,20
2017-05-25T03:11:49.098Z,20
2017-05-25T03:12:48.822Z,20
2017-05-25T03:13:49.145Z,20
2017-05-25T03:14:49.168Z,25
2017-05-25T03:16:18.418Z,25
2017-05-25T03:16:49.208Z,30
2017-05-25T03:18:03.848Z,30
2017-05-25T03:18:49.257Z,30
2017-05-25T03:20:03.591Z,35
2017-05-25T03:20:49.302Z,35
2017-05-25T03:22:03.942Z,35
2017-05-25T03:22:49.037Z,35
2017-05-25T03:23:49.367Z,35
2017-05-25T03:24:49.387Z,40
2017-05-25T03:25:49.411Z,40
2017-05-25T03:26:49.432Z,40
2017-05-25T03:27:49.152Z,45
2017-05-25T03:28:49.179Z,45
2017-05-25T03:29:48.891Z,45
2017-05-25T03:30:49.216Z,50
2017-05-25T03:32:03.855Z,50
2017-05-25T03:32:49.565Z,55
2017-05-25T03:33:49.282Z,55
2017-05-25T03:34:49.614Z,55
2017-05-25T03:36:04.245Z,60
2017-05-25T03:36:49.352Z,60
2017-05-25T03:37:49.374Z,60
2017-05-25T03:38:49.698Z,65
2017-05-25T03:39:49.719Z,65
2017-05-25T03:40:49.746Z,65
2017-05-25T03:41:49.459Z,75
2017-05-25T03:42:49.783Z,80
2017-05-25T03:43:49.809Z,95
2017-05-25T03:45:04.451Z,80
2017-05-25T03:46:04.166Z,80
2017-05-25T03:47:04.494Z,85
2017-05-25T03:48:04.518Z,80
2017-05-25T03:48:49.930Z,85
2017-05-25T03:49:49.946Z,90
2017-05-25T03:51:04.592Z,85
2017-05-25T03:51:49.992Z,85
2017-05-25T03:53:04.633Z,90
2017-05-25T03:53:50.038Z,90
2017-05-25T03:54:50.057Z,90
2017-05-25T03:55:50.084Z,85
2017-05-25T03:56:49.798Z,85
2017-05-25T03:58:04.738Z,85
2017-05-25T03:58:50.147Z,85
2017-05-25T03:59:50.165Z,95
2017-05-25T04:00:49.892Z,105
2017-05-25T04:01:49.911Z,100
2017-05-25T04:03:04.853Z,100
2017-05-25T04:04:04.876Z,100
2017-05-25T04:04:50.288Z,90
2017-05-25T04:05:50.308Z,90
2017-05-25T04:06:50.022Z,100
2017-05-25T04:07:49.748Z,110
2017-05-25T04:08:49.769Z,175
2017-05-25T04:09:50.393Z,220
2017-05-25T04:10:50.417Z,210
2017-05-25T04:12:05.060Z,205
2017-05-25T04:12:50.470Z,195
2017-05-25T04:13:50.491Z,190
2017-05-25T04:15:04.820Z,160
2017-05-25T04:16:04.848Z,145
2017-05-25T04:16:49.948Z,150
2017-05-25T04:17:50.583Z,145
2017-05-25T04:18:50.609Z,145
2017-05-25T04:19:50.623Z,150
2017-05-25T04:20:50.647Z,145
2017-05-25T04:22:05.285Z,170
2017-05-25T04:23:05.308Z,205
2017-05-25T04:23:50.721Z,270
2017-05-25T04:25:50.768Z,180
2017-05-25T04:26:50.799Z,170
2017-05-25T04:27:50.812Z,160
2017-05-25T04:28:50.836Z,165
2017-05-25T04:29:50.853Z,165
2017-05-25T04:30:50.894Z,175
2017-05-25T04:31:50.900Z,175
2017-05-25T04:32:50.926Z,175
2017-05-25T04:33:50.952Z,280
2017-05-25T04:35:19.899Z,795
2017-05-25T04:35:51.001Z,915
2017-05-25T04:37:05.328Z,985
2017-05-25T04:37:50.746Z,660
2017-05-25T04:40:51.411Z,990
2017-05-25T04:41:51.142Z,1000
2017-05-25T04:42:51.165Z,1015
2017-05-25T04:43:51.188Z,1000
2017-05-25T04:45:05.833Z,1020
2017-05-25T04:45:51.247Z,1050
2017-05-25T04:46:51.269Z,1035
2017-05-25T04:47:50.992Z,1095
2017-05-25T04:48:51.318Z,1100
2017-05-25T04:49:51.344Z,880
2017-05-25T04:51:05.685Z,985
2017-05-25T04:52:51.123Z,1085
2017-05-25T04:53:51.458Z,1105
2017-05-25T04:55:05.849Z,1145
2017-05-25T04:55:51.508Z,1200
2017-05-25T04:56:51.559Z,1180
2017-05-25T04:57:51.569Z,1120
2017-05-25T04:58:51.286Z,1160
2017-05-25T04:59:51.632Z,1175
2017-05-25T05:00:51.659Z,1150
2017-05-25T05:01:51.685Z,1190
2017-05-25T05:02:51.711Z,1150
2017-05-25T05:03:51.742Z,1140
2017-05-25T05:04:51.470Z,1200
2017-05-25T05:05:51.798Z,1290
2017-05-25T05:06:51.830Z,1280
2017-05-25T05:07:51.862Z,1275
2017-05-25T05:08:51.592Z,1255
2017-05-25T05:09:51.922Z,1245
2017-05-25T05:11:51.684Z,1370
2017-05-25T05:12:51.719Z,1320
2017-05-25T05:13:52.052Z,1290
2017-05-25T05:14:52.081Z,1250
2017-05-25T05:15:52.113Z,1250
2017-05-25T05:16:52.142Z,1315
2017-05-25T05:17:51.871Z,1320
2017-05-25T05:18:52.208Z,1355
2017-05-25T05:20:06.885Z,1375
2017-05-25T05:20:52.275Z,1365
2017-05-25T05:21:52.007Z,1385
2017-05-25T05:22:52.336Z,1380
2017-05-25T05:23:52.372Z,1400
2017-05-25T05:24:52.407Z,1365
2017-05-25T05:27:52.509Z,1435
2017-05-25T05:28:52.552Z,1420
2017-05-25T05:29:52.578Z,1440
2017-05-25T05:30:52.608Z,1455
2017-05-25T05:31:52.645Z,1425
2017-05-25T05:32:52.676Z,1450
2017-05-25T05:34:07.381Z,1415
2017-05-25T05:34:52.747Z,1430
2017-05-25T05:35:52.482Z,1445
2017-05-25T05:36:52.810Z,1455
2017-05-25T05:37:52.849Z,1400
2017-05-25T05:38:52.885Z,1445
2017-05-25T05:39:52.920Z,1440
2017-05-25T05:40:52.951Z,1435
2017-05-25T05:41:52.998Z,1460
2017-05-25T05:42:52.719Z,1505
2017-05-25T05:43:52.755Z,1480
2017-05-25T05:45:07.716Z,1470
2017-05-25T05:45:53.130Z,1465
2017-05-25T05:46:52.856Z,1450
2017-05-25T05:47:52.903Z,1465
2017-05-25T05:48:53.239Z,1465
2017-05-25T05:49:53.269Z,1405
2017-05-25T05:51:07.925Z,1455
2017-05-25T05:51:53.346Z,1440
2017-05-25T05:52:53.073Z,1415
2017-05-25T05:53:53.418Z,1455
2017-05-25T05:54:53.446Z,1430
2017-05-25T05:55:53.480Z,1430
2017-05-25T05:56:53.525Z,1410
2017-05-25T05:58:07.874Z,1440
2017-05-25T05:59:53.653Z,1395
2017-05-25T06:00:53.663Z,1335
2017-05-25T06:01:53.703Z,1310
2017-05-25T06:02:53.734Z,1360
2017-05-25T06:03:53.781Z,1395
2017-05-25T06:04:53.809Z,1400
2017-05-25T06:06:08.464Z,1430
2017-05-25T06:06:53.882Z,1440
2017-05-25T06:07:53.617Z,1380
2017-05-25T06:09:08.585Z,1490
2017-05-25T06:09:53.991Z,1480
2017-05-25T06:10:54.031Z,1380
2017-05-25T06:11:54.064Z,1445
2017-05-25T06:12:53.805Z,1475
2017-05-25T06:14:08.453Z,1360
2017-05-25T06:14:54.179Z,1350
2017-05-25T06:15:54.210Z,1400
2017-05-25T06:17:54.289Z,1350
2017-05-25T06:19:08.949Z,1395
2017-05-25T06:19:54.369Z,1380
2017-05-25T06:20:54.091Z,1345
2017-05-25T06:21:54.128Z,1370
2017-05-25T06:22:54.470Z,1340
2017-05-25T06:23:54.511Z,1380
2017-05-25T06:24:54.552Z,1385
2017-05-25T06:25:54.587Z,1380
2017-05-25T06:26:54.613Z,1350
2017-05-25T06:27:54.655Z,1365
2017-05-25T06:30:09.042Z,1360
2017-05-25T06:30:54.765Z,1405
2017-05-25T06:33:09.469Z,1335
2017-05-25T06:33:54.576Z,1335
2017-05-25T06:34:54.312Z,1320
2017-05-25T06:36:09.266Z,1290
2017-05-25T06:36:54.682Z,1270
2017-05-25T06:37:54.415Z,1290
2017-05-25T06:39:09.384Z,1250
2017-05-25T06:39:55.102Z,1250
2017-05-25T06:41:09.457Z,1320
2017-05-25T06:41:54.868Z,1275
2017-05-25T06:42:54.913Z,1260
2017-05-25T06:43:55.251Z,1270
2017-05-25T06:48:09.773Z,1205
2017-05-25T06:48:54.828Z,1145
2017-05-25T06:49:55.485Z,1105
2017-05-25T06:50:55.534Z,1050
2017-05-25T06:51:55.544Z,1090
2017-05-25T06:52:55.281Z,1095
2017-05-25T06:54:10.241Z,1010
2017-05-25T06:55:09.974Z,975
2017-05-25T06:55:55.694Z,960
2017-05-25T06:57:24.669Z,910
2017-05-25T06:57:55.780Z,875
2017-05-25T06:59:10.428Z,845
2017-05-25T06:59:55.843Z,845
2017-05-25T07:01:10.201Z,775
2017-05-25T07:01:55.930Z,720
2017-05-25T07:03:55.997Z,690
2017-05-25T07:04:56.033Z,600
2017-05-25T07:05:56.069Z,655
2017-05-25T07:07:10.731Z,635
2017-05-25T07:07:55.838Z,635
2017-05-25T07:09:10.810Z,600
2017-05-25T07:09:56.215Z,605
2017-05-25T07:10:56.257Z,630
2017-05-25T07:12:10.306Z,665
2017-05-25T07:12:56.335Z,680
2017-05-25T07:13:56.376Z,715
2017-05-25T07:14:56.405Z,800
2017-05-25T07:16:11.062Z,910
2017-05-25T07:17:56.520Z,1370
2017-05-25T07:18:55.949Z,1830
2017-05-25T07:19:56.596Z,1790
2017-05-25T07:23:11.326Z,1090
2017-05-25T07:23:56.743Z,1125
2017-05-25T07:24:56.479Z,1135
2017-05-25T07:25:56.817Z,1120
2017-05-25T07:26:56.852Z,1150
2017-05-25T07:27:56.896Z,1185
2017-05-25T07:30:56.397Z,1165
2017-05-25T07:31:57.040Z,1125
2017-05-25T07:33:11.699Z,1065
2017-05-25T07:33:57.124Z,1030
2017-05-25T07:34:57.152Z,985
2017-05-25T07:35:57.195Z,1005
2017-05-25T07:36:57.229Z,1075
2017-05-25T07:37:56.983Z,1060
2017-05-25T07:38:57.315Z,1040
2017-05-25T07:39:57.337Z,1010
2017-05-25T07:41:11.386Z,990
2017-05-25T07:41:57.108Z,975
2017-05-25T07:42:57.445Z,890
2017-05-25T07:44:11.803Z,460
2017-05-25T07:44:57.567Z,285
2017-05-25T07:45:57.558Z,970
2017-05-25T07:46:57.289Z,895
2017-05-25T07:47:57.335Z,255
2017-05-25T07:49:12.299Z,310
2017-05-25T07:49:57.720Z,285
2017-05-25T07:50:57.747Z,955
2017-05-25T07:51:57.819Z,955
2017-05-25T07:52:57.877Z,920
2017-05-25T07:54:12.170Z,860
2017-05-25T07:54:57.588Z,885
2017-05-25T07:55:57.929Z,855
2017-05-25T07:56:57.659Z,875
2017-05-25T07:57:57.700Z,870
2017-05-25T07:59:12.650Z,850
2017-05-25T07:59:57.767Z,830
2017-05-25T08:01:12.726Z,765
2017-05-25T08:01:57.841Z,810
2017-05-25T08:03:12.798Z,800
2017-05-25T08:03:57.924Z,775
2017-05-25T08:05:12.873Z,810
2017-05-25T08:05:58.295Z,815
2017-05-25T08:06:58.323Z,800
2017-05-25T08:07:58.363Z,790
2017-05-25T08:08:58.397Z,760
2017-05-25T08:09:58.434Z,720
2017-05-25T08:10:58.473Z,725
2017-05-25T08:11:58.504Z,260
2017-05-25T08:12:58.242Z,375
2017-05-25T08:13:58.284Z,245
2017-05-25T08:14:58.618Z,295
2017-05-25T08:15:58.653Z,250
2017-05-25T08:16:58.688Z,630
2017-05-25T08:17:58.789Z,495
2017-05-25T08:18:58.769Z,235
2017-05-25T08:20:13.414Z,230
2017-05-25T08:21:13.449Z,225
2017-05-25T08:23:58.635Z,615
2017-05-25T08:25:59.007Z,295
2017-05-25T08:26:59.055Z,260
2017-05-25T08:27:59.076Z,595
2017-05-25T08:29:13.734Z,575
2017-05-25T08:29:59.149Z,565
2017-05-25T08:30:59.182Z,555
2017-05-25T08:31:59.219Z,545
2017-05-25T08:32:59.254Z,230
2017-05-25T08:33:59.287Z,240
2017-05-25T08:34:59.337Z,230
2017-05-25T08:36:13.672Z,310
2017-05-25T08:36:59.389Z,235
2017-05-25T08:37:59.123Z,255
2017-05-25T08:39:59.497Z,565
2017-05-25T08:40:59.527Z,260
2017-05-25T08:41:59.563Z,565
2017-05-25T08:42:59.600Z,560
2017-05-25T08:43:59.323Z,320
2017-05-25T08:44:59.675Z,535
2017-05-25T08:45:59.698Z,515
2017-05-25T08:46:59.729Z,510
2017-05-25T08:47:59.768Z,495
2017-05-25T08:49:14.114Z,505
2017-05-25T08:49:59.843Z,500
2017-05-25T08:50:59.863Z,190
2017-05-25T08:51:59.907Z,210
2017-05-25T08:52:59.934Z,530
2017-05-25T08:53:59.970Z,250
2017-05-25T08:54:59.704Z,245
2017-05-25T08:55:59.729Z,255
2017-05-25T08:57:00.068Z,220
2017-05-25T08:58:00.106Z,205
2017-05-25T08:59:14.758Z,190
2017-05-25T09:00:00.171Z,180
2017-05-25T09:00:59.901Z,175
2017-05-25T09:02:00.240Z,175
2017-05-25T09:02:59.969Z,175
2017-05-25T09:04:29.536Z,180
2017-05-25T09:05:00.342Z,210
2017-05-25T09:06:00.072Z,185
2017-05-25T09:07:00.092Z,165
2017-05-25T09:08:15.050Z,160
2017-05-25T09:09:00.161Z,160
2017-05-25T09:10:00.186Z,170
2017-05-25T09:12:00.551Z,260
2017-05-25T09:13:00.285Z,225
2017-05-25T09:14:00.313Z,235
2017-05-25T09:15:14.959Z,230
2017-05-25T09:16:00.677Z,235
2017-05-25T09:17:00.410Z,230
2017-05-25T09:18:00.437Z,435
2017-05-25T09:19:00.772Z,260
2017-05-25T09:20:15.716Z,390
2017-05-25T09:21:00.828Z,325
2017-05-25T09:22:00.861Z,245
2017-05-25T09:23:00.914Z,240
2017-05-25T09:24:15.236Z,230
2017-05-25T09:25:00.650Z,235
2017-05-25T09:26:00.979Z,230
2017-05-25T09:27:01.012Z,230
2017-05-25T09:28:01.049Z,225
2017-05-25T09:29:15.694Z,210
2017-05-25T09:30:01.108Z,210
2017-05-25T09:31:01.133Z,210
2017-05-25T09:32:01.169Z,355
2017-05-25T09:33:01.196Z,230
2017-05-25T09:34:01.225Z,225
2017-05-25T09:36:01.286Z,215
2017-05-25T09:37:01.315Z,380
2017-05-25T09:38:01.347Z,245
2017-05-25T09:39:01.375Z,240
2017-05-25T09:41:16.062Z,230
2017-05-25T09:43:01.496Z,235
2017-05-25T09:44:01.528Z,240
2017-05-25T09:45:01.557Z,235
2017-05-25T09:46:01.586Z,230
2017-05-25T09:47:16.238Z,225
2017-05-25T09:48:01.647Z,215
2017-05-25T09:49:01.685Z,195
2017-05-25T09:50:01.706Z,185
2017-05-25T09:51:16.347Z,320
2017-05-25T09:52:01.459Z,220
2017-05-25T09:53:01.500Z,255
2017-05-25T09:54:01.824Z,265
2017-05-25T09:55:01.554Z,260
2017-05-25T09:57:01.908Z,240
2017-05-25T09:58:01.943Z,225
2017-05-25T09:59:01.973Z,245
2017-05-25T10:00:01.999Z,275
2017-05-25T10:01:02.030Z,280
2017-05-25T10:02:02.055Z,240
2017-05-25T10:03:02.108Z,240
2017-05-25T10:04:01.512Z,250
2017-05-25T10:05:01.853Z,255
2017-05-25T10:06:02.181Z,260
2017-05-25T10:08:16.855Z,240
2017-05-25T10:09:16.885Z,240
2017-05-25T10:11:16.707Z,245
2017-05-25T10:12:02.354Z,245
2017-05-25T10:13:02.397Z,245
2017-05-25T10:14:02.115Z,240
2017-05-25T10:15:02.448Z,240
2017-05-25T10:16:02.473Z,240
2017-05-25T10:17:02.199Z,240
2017-05-25T10:18:02.236Z,240
2017-05-25T10:19:17.188Z,240
2017-05-25T10:20:02.290Z,240
2017-05-25T10:21:16.938Z,245
2017-05-25T10:22:02.651Z,250
2017-05-25T10:23:31.915Z,255
2017-05-25T10:24:02.719Z,255
2017-05-25T10:25:02.744Z,285
2017-05-25T10:26:02.462Z,270
2017-05-25T10:27:02.505Z,270
2017-05-25T10:28:32.073Z,260
2017-05-25T10:29:02.320Z,255
2017-05-25T10:30:02.593Z,245
2017-05-25T10:31:02.315Z,250
2017-05-25T10:32:02.653Z,300
2017-05-25T10:33:17.596Z,375
2017-05-25T10:34:02.705Z,390
2017-05-25T10:35:17.346Z,385
2017-05-25T10:36:02.766Z,395
2017-05-25T10:37:03.090Z,395
2017-05-25T10:38:03.118Z,365
2017-05-25T10:39:02.851Z,300
2017-05-25T10:40:02.878Z,290
2017-05-25T10:41:02.905Z,230
2017-05-25T10:42:02.932Z,220
2017-05-25T10:44:02.686Z,210
2017-05-25T10:46:03.350Z,210
2017-05-25T10:47:18.003Z,205
2017-05-25T10:48:03.415Z,200
2017-05-25T10:49:03.443Z,190
2017-05-25T10:50:17.785Z,175
2017-05-25T10:51:18.118Z,170
2017-05-25T10:52:03.531Z,170
2017-05-25T10:53:03.257Z,170
2017-05-25T10:54:03.591Z,175
2017-05-25T10:55:03.320Z,210
2017-05-25T10:56:03.644Z,240
2017-05-25T10:57:03.678Z,210
2017-05-25T10:59:18.353Z,200
2017-05-25T11:00:03.770Z,195
2017-05-25T11:01:03.792Z,175
2017-05-25T11:02:03.821Z,160
2017-05-25T11:03:03.849Z,160
2017-05-25T11:04:03.572Z,170
2017-05-25T11:05:03.906Z,180
2017-05-25T11:06:03.634Z,195
2017-05-25T11:07:18.583Z,215
2017-05-25T11:08:03.993Z,215
2017-05-25T11:09:04.022Z,210
2017-05-25T11:10:03.445Z,205
2017-05-25T11:11:18.696Z,195
2017-05-25T11:12:04.109Z,195
2017-05-25T11:13:04.135Z,210
2017-05-25T11:14:03.859Z,245
2017-05-25T11:15:33.438Z,210
2017-05-25T11:16:04.221Z,210
2017-05-25T11:17:04.254Z,240
2017-05-25T11:18:04.283Z,215
2017-05-25T11:19:04.307Z,215
2017-05-25T11:20:04.336Z,215
2017-05-25T11:21:18.980Z,215
2017-05-25T11:22:04.088Z,215
2017-05-25T11:23:04.421Z,215
2017-05-25T11:24:04.447Z,215
2017-05-25T11:25:04.474Z,215
2017-05-25T11:26:19.119Z,215
2017-05-25T11:27:04.531Z,215
2017-05-25T11:28:04.264Z,215
2017-05-25T11:29:18.902Z,210
2017-05-25T11:30:18.993Z,205
2017-05-25T11:31:19.267Z,200
2017-05-25T11:32:04.374Z,195
2017-05-25T11:33:04.722Z,190
2017-05-25T11:34:19.356Z,185
2017-05-25T11:35:04.763Z,180
2017-05-25T11:36:19.406Z,180
2017-05-25T11:37:04.510Z,175
2017-05-25T11:38:04.846Z,170
2017-05-25T11:39:04.569Z,170
2017-05-25T11:40:18.908Z,165
2017-05-25T11:41:04.925Z,160
2017-05-25T11:42:04.345Z,155
2017-05-25T11:43:04.684Z,145
2017-05-25T11:44:04.410Z,145
2017-05-25T11:45:19.416Z,140
2017-05-25T11:46:19.696Z,140
2017-05-25T11:49:04.846Z,140
2017-05-25T11:50:19.191Z,145
2017-05-25T11:52:04.930Z,145
2017-05-25T11:53:19.883Z,145
2017-05-25T11:54:04.986Z,140
2017-05-25T11:55:05.016Z,140
2017-05-25T11:57:19.688Z,125
2017-05-25T11:58:05.099Z,120
2017-05-25T11:59:34.661Z,115
2017-05-25T12:00:05.155Z,115
2017-05-25T12:01:05.483Z,115
2017-05-25T12:02:05.509Z,120
2017-05-25T12:03:05.538Z,130
2017-05-25T12:04:04.656Z,135
2017-05-25T12:05:05.294Z,140
2017-05-25T12:07:05.339Z,155
2017-05-25T12:08:05.676Z,165
2017-05-25T12:09:05.708Z,170
2017-05-25T12:10:05.427Z,175
2017-05-25T12:11:20.071Z,175
2017-05-25T12:12:05.784Z,175
2017-05-25T12:13:20.429Z,175
2017-05-25T12:14:05.839Z,175
2017-05-25T12:15:20.484Z,170
2017-05-25T12:16:05.900Z,165
2017-05-25T12:17:05.927Z,160
2017-05-25T12:18:20.265Z,150
2017-05-25T12:19:05.675Z,150
2017-05-25T12:20:06.005Z,150
2017-05-25T12:21:06.027Z,155
2017-05-25T12:22:05.753Z,160
2017-05-25T12:23:05.784Z,160
2017-05-25T12:24:06.110Z,165
2017-05-25T12:25:06.137Z,170
2017-05-25T12:26:06.175Z,175
2017-05-25T12:28:05.916Z,185
2017-05-25T12:29:05.941Z,185
2017-05-25T12:30:05.674Z,185
2017-05-25T12:31:20.920Z,185
2017-05-25T12:32:20.338Z,185
2017-05-25T12:33:06.359Z,185
2017-05-25T12:35:06.425Z,175
2017-05-25T12:36:06.440Z,170
2017-05-25T12:37:06.468Z,170
2017-05-25T12:38:06.193Z,170
2017-05-25T12:39:06.520Z,175
2017-05-25T12:40:06.550Z,175
2017-05-25T12:41:21.197Z,170
2017-05-25T12:42:05.998Z,170
2017-05-25T12:43:21.253Z,165
2017-05-25T12:44:06.658Z,165
2017-05-25T12:45:21.305Z,165
2017-05-25T12:46:06.720Z,170
2017-05-25T12:47:06.739Z,170
2017-05-25T12:48:06.775Z,175
2017-05-25T12:49:06.799Z,180
2017-05-25T12:52:06.874Z,185
2017-05-25T12:53:06.613Z,185
2017-05-25T12:54:06.930Z,185
2017-05-25T12:55:06.956Z,180
2017-05-25T12:56:06.686Z,175
2017-05-25T12:57:07.016Z,175
2017-05-25T12:58:06.749Z,175
2017-05-25T13:00:07.096Z,170
2017-05-25T13:01:07.124Z,165
2017-05-25T13:02:21.765Z,155
2017-05-25T13:03:21.488Z,145
2017-05-25T13:04:06.595Z,140
2017-05-25T13:06:21.876Z,130
2017-05-25T13:07:06.985Z,125
2017-05-25T13:08:07.005Z,120
2017-05-25T13:09:07.336Z,115
2017-05-25T13:10:07.128Z,110
2017-05-25T13:12:06.813Z,120
2017-05-25T13:13:06.840Z,120
2017-05-25T13:14:06.867Z,115
2017-05-25T13:15:06.895Z,110
2017-05-25T13:16:06.918Z,105
2017-05-25T13:17:06.945Z,95
2017-05-25T13:18:21.593Z,85
2017-05-25T13:19:07.026Z,80
2017-05-25T13:20:07.350Z,70
2017-05-25T13:21:21.982Z,70
2017-05-25T13:23:07.715Z,70
2017-05-25T13:24:07.746Z,65
2017-05-25T13:25:07.466Z,65
2017-05-25T13:26:07.794Z,65
2017-05-25T13:27:07.825Z,60
2017-05-25T13:28:07.862Z,55
2017-05-25T13:29:07.879Z,60
2017-05-25T13:30:07.903Z,60
2017-05-25T13:31:07.629Z,65
2017-05-25T13:32:22.019Z,70
2017-05-25T13:33:07.985Z,70
2017-05-25T13:34:07.407Z,70
2017-05-25T13:35:07.735Z,75
2017-05-25T13:36:08.065Z,85
2017-05-25T13:37:22.707Z,90
2017-05-25T13:38:08.118Z,95
2017-05-25T13:39:08.148Z,105
2017-05-25T13:40:07.562Z,110
2017-05-25T13:42:08.223Z,135
2017-05-25T13:43:08.250Z,145
2017-05-25T13:44:08.276Z,165
2017-05-25T13:45:08.309Z,175
2017-05-25T13:46:08.330Z,190
2017-05-25T13:47:08.054Z,195
2017-05-25T13:48:08.384Z,195
2017-05-25T13:49:23.027Z,190
2017-05-25T13:50:08.145Z,190
2017-05-25T13:51:08.159Z,190
2017-05-25T13:52:08.491Z,190
2017-05-25T13:53:23.138Z,185
2017-05-25T13:54:07.938Z,175
2017-05-25T13:55:08.266Z,170
2017-05-25T13:56:08.293Z,170
2017-05-25T13:58:08.348Z,270
2017-05-25T13:59:08.377Z,270
2017-05-25T14:01:08.121Z,205
2017-05-25T14:02:23.380Z,190
2017-05-25T14:03:23.404Z,175
2017-05-25T14:04:23.125Z,175
2017-05-25T14:05:08.534Z,170
2017-05-25T14:06:08.257Z,165
2017-05-25T14:07:23.205Z,175
2017-05-25T14:08:08.621Z,170
2017-05-25T14:09:23.573Z,175
2017-05-25T14:10:08.976Z,185
2017-05-25T14:11:08.401Z,200
2017-05-25T14:12:08.426Z,265
2017-05-25T14:13:23.379Z,220
2017-05-25T14:14:08.777Z,210
2017-05-25T14:15:08.804Z,200
2017-05-25T14:17:23.479Z,230
2017-05-25T14:18:09.196Z,255
2017-05-25T14:19:08.917Z,255
2017-05-25T14:20:08.941Z,255
2017-05-25T14:21:09.269Z,180
2017-05-25T14:22:38.535Z,170
2017-05-25T14:23:09.354Z,170
2017-05-25T14:24:09.049Z,170
2017-05-25T14:26:09.116Z,245
2017-05-25T14:28:09.165Z,170
2017-05-25T14:29:09.185Z,235
2017-05-25T14:30:09.524Z,190
2017-05-25T14:31:24.175Z,175
2017-05-25T14:32:09.573Z,175
2017-05-25T14:33:09.607Z,180
2017-05-25T14:34:09.630Z,165
2017-05-25T14:35:09.662Z,215
2017-05-25T14:36:38.921Z,240
2017-05-25T14:37:24.026Z,180
2017-05-25T14:38:09.751Z,235
2017-05-25T14:39:09.464Z,235
2017-05-25T14:40:09.798Z,230
2017-05-25T14:41:24.141Z,230
2017-05-25T14:43:09.583Z,160
2017-05-25T14:44:09.600Z,155
2017-05-25T14:45:09.641Z,160
2017-05-25T14:46:09.354Z,160
2017-05-25T14:47:09.685Z,165
2017-05-25T14:48:10.016Z,205
2017-05-25T14:49:24.664Z,165
2017-05-25T14:50:09.468Z,165
2017-05-25T14:51:24.414Z,155
2017-05-25T14:52:39.060Z,150
2017-05-25T14:53:09.859Z,160
2017-05-25T14:54:09.884Z,195
2017-05-25T14:55:24.237Z,200
2017-05-25T14:56:24.557Z,145
2017-05-25T14:58:09.993Z,145
2017-05-25T14:59:09.716Z,180
2017-05-25T15:00:09.744Z,145